sensor_id;sensor_type;location;lat;lon;timestamp;temperature;humidity
15343;DHT22;7771;48.478;8.936;2024-01-30T00:01:00;3.70;99.90
15343;DHT22;7771;48.478;8.936;2024-01-30T00:03:27;3.70;99.90
15343;DHT22;7771;48.478;8.936;2024-01-30T00:05:54;3.70;99.90
15343;DHT22;7771;48.478;8.936;2024-01-30T00:08:22;3.70;99.90
15343;DHT22;7771;48.478;8.936;2024-01-30T00:10:49;3.60;99.90
15343;DHT22;7771;48.478;8.936;2024-01-30T00:13:16;3.60;99.90
15343;DHT22;7771;48.478;8.936;2024-01-30T00:15:43;3.60;99.90
15343;DHT22;7771;48.478;8.936;2024-01-30T00:18:09;3.50;99.90
15343;DHT22;7771;48.478;8.936;2024-01-30T00:23:05;3.50;99.90
15343;DHT22;7771;48.478;8.936;2024-01-30T00:25:31;3.50;99.90
15343;DHT22;7771;48.478;8.936;2024-01-30T00:27:59;3.60;99.90
15343;DHT22;7771;48.478;8.936;2024-01-30T00:30:25;3.50;99.90
15343;DHT22;7771;48.478;8.936;2024-01-30T00:32:53;3.60;99.90
15343;DHT22;7771;48.478;8.936;2024-01-30T00:35:19;3.50;99.90
15343;DHT22;7771;48.478;8.936;2024-01-30T00:37:47;3.50;99.90
15343;DHT22;7771;48.478;8.936;2024-01-30T00:42:42;3.50;99.90
15343;DHT22;7771;48.478;8.936;2024-01-30T00:45:15;3.50;99.90
15343;DHT22;7771;48.478;8.936;2024-01-30T00:47:41;3.40;99.90
15343;DHT22;7771;48.478;8.936;2024-01-30T00:50:08;3.50;99.90
15343;DHT22;7771;48.478;8.936;2024-01-30T00:52:35;3.50;99.90
15343;DHT22;7771;48.478;8.936;2024-01-30T00:55:03;3.50;99.90
15343;DHT22;7771;48.478;8.936;2024-01-30T00:57:31;3.50;99.90
15343;DHT22;7771;48.478;8.936;2024-01-30T00:59:58;3.50;99.90
15343;DHT22;7771;48.478;8.936;2024-01-30T01:04:54;3.40;99.90
15343;DHT22;7771;48.478;8.936;2024-01-30T01:07:22;3.40;99.90
15343;DHT22;7771;48.478;8.936;2024-01-30T01:09:48;3.30;99.90
15343;DHT22;7771;48.478;8.936;2024-01-30T01:12:16;3.30;99.90
15343;DHT22;7771;48.478;8.936;2024-01-30T01:14:42;3.30;99.90
15343;DHT22;7771;48.478;8.936;2024-01-30T01:17:10;3.30;99.90
15343;DHT22;7771;48.478;8.936;2024-01-30T01:19:36;3.20;99.90
15343;DHT22;7771;48.478;8.936;2024-01-30T01:22:03;3.30;99.90
15343;DHT22;7771;48.478;8.936;2024-01-30T01:24:31;3.30;99.90
15343;DHT22;7771;48.478;8.936;2024-01-30T01:26:58;3.20;99.90
15343;DHT22;7771;48.478;8.936;2024-01-30T01:29:25;3.20;99.90
15343;DHT22;7771;48.478;8.936;2024-01-30T01:31:52;3.20;99.90
15343;DHT22;7771;48.478;8.936;2024-01-30T01:34:20;3.20;99.90
15343;DHT22;7771;48.478;8.936;2024-01-30T01:36:47;3.20;99.90
15343;DHT22;7771;48.478;8.936;2024-01-30T01:39:14;3.10;99.90
15343;DHT22;7771;48.478;8.936;2024-01-30T01:41:41;3.20;99.90
15343;DHT22;7771;48.478;8.936;2024-01-30T01:44:09;3.20;99.90
15343;DHT22;7771;48.478;8.936;2024-01-30T01:46:36;3.20;99.90
15343;DHT22;7771;48.478;8.936;2024-01-30T01:49:04;3.10;99.90
15343;DHT22;7771;48.478;8.936;2024-01-30T01:51:31;3.10;99.90
15343;DHT22;7771;48.478;8.936;2024-01-30T01:53:58;3.10;99.90
15343;DHT22;7771;48.478;8.936;2024-01-30T01:56:25;3.10;99.90
15343;DHT22;7771;48.478;8.936;2024-01-30T01:58:51;3.10;99.90
15343;DHT22;7771;48.478;8.936;2024-01-30T02:01:19;3.00;99.90
15343;DHT22;7771;48.478;8.936;2024-01-30T02:03:46;3.10;99.90
15343;DHT22;7771;48.478;8.936;2024-01-30T02:06:14;3.10;99.90
15343;DHT22;7771;48.478;8.936;2024-01-30T02:08:41;3.10;99.90
15343;DHT22;7771;48.478;8.936;2024-01-30T02:13:36;3.00;99.90
15343;DHT22;7771;48.478;8.936;2024-01-30T02:16:04;3.10;99.90
15343;DHT22;7771;48.478;8.936;2024-01-30T02:18:30;3.10;99.90
15343;DHT22;7771;48.478;8.936;2024-01-30T02:20:58;3.00;99.90
15343;DHT22;7771;48.478;8.936;2024-01-30T02:23:25;3.00;99.90
15343;DHT22;7771;48.478;8.936;2024-01-30T02:25:52;2.90;99.90
15343;DHT22;7771;48.478;8.936;2024-01-30T02:28:19;2.90;99.90
15343;DHT22;7771;48.478;8.936;2024-01-30T02:30:46;2.90;99.90
15343;DHT22;7771;48.478;8.936;2024-01-30T02:33:13;2.90;99.90
15343;DHT22;7771;48.478;8.936;2024-01-30T02:35:40;2.90;99.90
15343;DHT22;7771;48.478;8.936;2024-01-30T02:38:06;2.80;99.90
15343;DHT22;7771;48.478;8.936;2024-01-30T02:40:34;2.80;99.90
15343;DHT22;7771;48.478;8.936;2024-01-30T02:43:02;2.80;99.90
15343;DHT22;7771;48.478;8.936;2024-01-30T02:45:29;2.80;99.90
15343;DHT22;7771;48.478;8.936;2024-01-30T02:47:57;2.80;99.90
15343;DHT22;7771;48.478;8.936;2024-01-30T02:50:24;2.80;99.90
15343;DHT22;7771;48.478;8.936;2024-01-30T02:52:52;2.80;99.90
15343;DHT22;7771;48.478;8.936;2024-01-30T02:55:19;2.70;99.90
15343;DHT22;7771;48.478;8.936;2024-01-30T02:57:46;2.80;99.90
15343;DHT22;7771;48.478;8.936;2024-01-30T03:00:13;2.70;99.90
15343;DHT22;7771;48.478;8.936;2024-01-30T03:02:40;2.70;99.90
15343;DHT22;7771;48.478;8.936;2024-01-30T03:05:07;2.70;99.90
15343;DHT22;7771;48.478;8.936;2024-01-30T03:07:35;2.70;99.90
15343;DHT22;7771;48.478;8.936;2024-01-30T03:10:04;2.70;99.90
15343;DHT22;7771;48.478;8.936;2024-01-30T03:12:31;2.60;99.90
15343;DHT22;7771;48.478;8.936;2024-01-30T03:14:57;2.60;99.90
15343;DHT22;7771;48.478;8.936;2024-01-30T03:17:25;2.70;99.90
15343;DHT22;7771;48.478;8.936;2024-01-30T03:19:51;2.60;99.90
15343;DHT22;7771;48.478;8.936;2024-01-30T03:22:19;2.60;99.90
15343;DHT22;7771;48.478;8.936;2024-01-30T03:24:45;2.60;99.90
15343;DHT22;7771;48.478;8.936;2024-01-30T03:27:12;2.60;99.90
15343;DHT22;7771;48.478;8.936;2024-01-30T03:29:38;2.60;99.90
15343;DHT22;7771;48.478;8.936;2024-01-30T03:32:05;2.60;99.90
15343;DHT22;7771;48.478;8.936;2024-01-30T03:34:32;2.60;99.90
15343;DHT22;7771;48.478;8.936;2024-01-30T03:37:03;2.60;99.90
15343;DHT22;7771;48.478;8.936;2024-01-30T03:39:30;2.60;99.90
15343;DHT22;7771;48.478;8.936;2024-01-30T03:41:57;2.60;99.90
15343;DHT22;7771;48.478;8.936;2024-01-30T03:44:24;2.70;99.90
15343;DHT22;7771;48.478;8.936;2024-01-30T03:46:51;2.70;99.90
15343;DHT22;7771;48.478;8.936;2024-01-30T03:49:18;2.60;99.90
15343;DHT22;7771;48.478;8.936;2024-01-30T03:51:44;2.60;99.90
15343;DHT22;7771;48.478;8.936;2024-01-30T03:54:12;2.60;99.90
15343;DHT22;7771;48.478;8.936;2024-01-30T03:56:38;2.60;99.90
15343;DHT22;7771;48.478;8.936;2024-01-30T03:59:06;2.60;99.90
15343;DHT22;7771;48.478;8.936;2024-01-30T04:01:34;2.60;99.90
15343;DHT22;7771;48.478;8.936;2024-01-30T04:04:01;2.60;99.90
15343;DHT22;7771;48.478;8.936;2024-01-30T04:06:28;2.60;99.90
15343;DHT22;7771;48.478;8.936;2024-01-30T04:08:55;2.60;99.90
15343;DHT22;7771;48.478;8.936;2024-01-30T04:11:21;2.50;99.90
15343;DHT22;7771;48.478;8.936;2024-01-30T04:13:48;2.70;99.90
15343;DHT22;7771;48.478;8.936;2024-01-30T04:16:20;2.70;99.90
15343;DHT22;7771;48.478;8.936;2024-01-30T04:18:47;2.70;99.90
15343;DHT22;7771;48.478;8.936;2024-01-30T04:21:13;2.70;99.90
15343;DHT22;7771;48.478;8.936;2024-01-30T04:23:41;2.60;99.90
15343;DHT22;7771;48.478;8.936;2024-01-30T04:26:07;2.60;99.90
15343;DHT22;7771;48.478;8.936;2024-01-30T04:28:34;2.60;99.90
15343;DHT22;7771;48.478;8.936;2024-01-30T04:31:01;2.70;99.90
15343;DHT22;7771;48.478;8.936;2024-01-30T04:35:56;2.60;99.90
15343;DHT22;7771;48.478;8.936;2024-01-30T04:38:23;2.50;99.90
15343;DHT22;7771;48.478;8.936;2024-01-30T04:43:19;2.50;99.90
15343;DHT22;7771;48.478;8.936;2024-01-30T04:45:45;2.50;99.90
15343;DHT22;7771;48.478;8.936;2024-01-30T04:48:12;2.50;99.90
15343;DHT22;7771;48.478;8.936;2024-01-30T04:50:39;2.50;99.90
15343;DHT22;7771;48.478;8.936;2024-01-30T04:53:05;2.50;99.90
15343;DHT22;7771;48.478;8.936;2024-01-30T04:55:32;2.50;99.90
15343;DHT22;7771;48.478;8.936;2024-01-30T04:57:59;2.40;99.90
15343;DHT22;7771;48.478;8.936;2024-01-30T05:00:26;2.40;99.90
15343;DHT22;7771;48.478;8.936;2024-01-30T05:02:55;2.40;99.90
15343;DHT22;7771;48.478;8.936;2024-01-30T05:05:21;2.40;99.90
15343;DHT22;7771;48.478;8.936;2024-01-30T05:07:48;2.40;99.90
15343;DHT22;7771;48.478;8.936;2024-01-30T05:10:16;2.40;99.90
15343;DHT22;7771;48.478;8.936;2024-01-30T05:12:43;2.40;99.90
15343;DHT22;7771;48.478;8.936;2024-01-30T05:15:10;2.40;99.90
15343;DHT22;7771;48.478;8.936;2024-01-30T05:17:36;2.40;99.90
15343;DHT22;7771;48.478;8.936;2024-01-30T05:20:04;2.40;99.90
15343;DHT22;7771;48.478;8.936;2024-01-30T05:22:32;2.40;99.90
15343;DHT22;7771;48.478;8.936;2024-01-30T05:24:58;2.40;99.90
15343;DHT22;7771;48.478;8.936;2024-01-30T05:27:27;2.40;99.90
15343;DHT22;7771;48.478;8.936;2024-01-30T05:29:56;2.40;99.90
15343;DHT22;7771;48.478;8.936;2024-01-30T05:32:23;2.40;99.90
15343;DHT22;7771;48.478;8.936;2024-01-30T05:34:50;2.40;99.90
15343;DHT22;7771;48.478;8.936;2024-01-30T05:37:17;2.30;99.90
15343;DHT22;7771;48.478;8.936;2024-01-30T05:39:44;2.40;99.90
15343;DHT22;7771;48.478;8.936;2024-01-30T05:42:11;2.40;99.90
15343;DHT22;7771;48.478;8.936;2024-01-30T05:44:38;2.40;99.90
15343;DHT22;7771;48.478;8.936;2024-01-30T05:47:05;2.40;99.90
15343;DHT22;7771;48.478;8.936;2024-01-30T05:49:32;2.30;99.90
15343;DHT22;7771;48.478;8.936;2024-01-30T05:52:01;2.40;99.90
15343;DHT22;7771;48.478;8.936;2024-01-30T05:54:27;2.40;99.90
15343;DHT22;7771;48.478;8.936;2024-01-30T05:56:54;2.40;99.90
15343;DHT22;7771;48.478;8.936;2024-01-30T05:59:21;2.40;99.90
15343;DHT22;7771;48.478;8.936;2024-01-30T06:01:48;2.40;99.90
15343;DHT22;7771;48.478;8.936;2024-01-30T06:04:14;2.40;99.90
15343;DHT22;7771;48.478;8.936;2024-01-30T06:06:41;2.30;99.90
15343;DHT22;7771;48.478;8.936;2024-01-30T06:09:09;2.50;99.90
15343;DHT22;7771;48.478;8.936;2024-01-30T06:11:36;2.50;99.90
15343;DHT22;7771;48.478;8.936;2024-01-30T06:14:04;2.60;99.90
15343;DHT22;7771;48.478;8.936;2024-01-30T06:16:42;2.60;99.90
15343;DHT22;7771;48.478;8.936;2024-01-30T06:19:09;2.60;99.90
15343;DHT22;7771;48.478;8.936;2024-01-30T06:21:36;2.60;99.90
15343;DHT22;7771;48.478;8.936;2024-01-30T06:24:04;2.50;99.90
15343;DHT22;7771;48.478;8.936;2024-01-30T06:26:30;2.60;99.90
15343;DHT22;7771;48.478;8.936;2024-01-30T06:28:58;2.60;99.90
15343;DHT22;7771;48.478;8.936;2024-01-30T06:36:24;2.70;99.90
15343;DHT22;7771;48.478;8.936;2024-01-30T06:38:51;2.80;99.90
15343;DHT22;7771;48.478;8.936;2024-01-30T06:41:17;2.70;99.90
15343;DHT22;7771;48.478;8.936;2024-01-30T06:43:44;2.70;99.90
15343;DHT22;7771;48.478;8.936;2024-01-30T06:48:40;2.70;99.90
15343;DHT22;7771;48.478;8.936;2024-01-30T06:51:07;2.70;99.90
15343;DHT22;7771;48.478;8.936;2024-01-30T06:53:34;2.80;99.90
15343;DHT22;7771;48.478;8.936;2024-01-30T06:56:01;2.70;99.90
15343;DHT22;7771;48.478;8.936;2024-01-30T06:58:29;2.80;99.90
15343;DHT22;7771;48.478;8.936;2024-01-30T07:00:56;2.70;99.90
15343;DHT22;7771;48.478;8.936;2024-01-30T07:03:23;2.70;99.90
15343;DHT22;7771;48.478;8.936;2024-01-30T07:08:17;2.80;99.90
15343;DHT22;7771;48.478;8.936;2024-01-30T07:10:47;2.80;99.90
15343;DHT22;7771;48.478;8.936;2024-01-30T07:13:16;2.80;99.90
15343;DHT22;7771;48.478;8.936;2024-01-30T07:15:43;2.80;99.90
15343;DHT22;7771;48.478;8.936;2024-01-30T07:18:10;2.90;99.90
15343;DHT22;7771;48.478;8.936;2024-01-30T07:20:38;2.90;99.90
15343;DHT22;7771;48.478;8.936;2024-01-30T07:23:05;2.90;99.90
15343;DHT22;7771;48.478;8.936;2024-01-30T07:25:32;3.00;99.90
15343;DHT22;7771;48.478;8.936;2024-01-30T07:27:59;3.00;99.90
15343;DHT22;7771;48.478;8.936;2024-01-30T07:30:27;3.00;99.90
15343;DHT22;7771;48.478;8.936;2024-01-30T07:35:21;3.00;99.90
15343;DHT22;7771;48.478;8.936;2024-01-30T07:37:48;3.10;99.90
15343;DHT22;7771;48.478;8.936;2024-01-30T07:40:16;3.10;99.90
15343;DHT22;7771;48.478;8.936;2024-01-30T07:42:44;3.10;99.90
15343;DHT22;7771;48.478;8.936;2024-01-30T07:45:11;3.10;99.90
15343;DHT22;7771;48.478;8.936;2024-01-30T07:47:38;3.10;99.90
15343;DHT22;7771;48.478;8.936;2024-01-30T07:50:06;3.10;99.90
15343;DHT22;7771;48.478;8.936;2024-01-30T07:52:34;3.20;99.90
15343;DHT22;7771;48.478;8.936;2024-01-30T07:55:00;3.20;99.90
15343;DHT22;7771;48.478;8.936;2024-01-30T07:57:27;3.30;99.90
15343;DHT22;7771;48.478;8.936;2024-01-30T07:59:54;3.30;99.90
15343;DHT22;7771;48.478;8.936;2024-01-30T08:02:21;3.30;99.90
15343;DHT22;7771;48.478;8.936;2024-01-30T08:04:48;3.40;99.90
15343;DHT22;7771;48.478;8.936;2024-01-30T08:09:44;3.60;99.90
15343;DHT22;7771;48.478;8.936;2024-01-30T08:12:11;3.70;99.90
15343;DHT22;7771;48.478;8.936;2024-01-30T08:14:38;3.70;99.90
15343;DHT22;7771;48.478;8.936;2024-01-30T08:17:05;3.80;99.90
15343;DHT22;7771;48.478;8.936;2024-01-30T08:19:32;3.90;99.90
15343;DHT22;7771;48.478;8.936;2024-01-30T08:24:26;4.10;99.90
15343;DHT22;7771;48.478;8.936;2024-01-30T08:26:53;4.20;99.90
15343;DHT22;7771;48.478;8.936;2024-01-30T08:29:20;4.30;99.90
15343;DHT22;7771;48.478;8.936;2024-01-30T08:31:47;4.40;99.90
15343;DHT22;7771;48.478;8.936;2024-01-30T08:34:14;4.40;99.90
15343;DHT22;7771;48.478;8.936;2024-01-30T08:39:10;4.50;99.90
15343;DHT22;7771;48.478;8.936;2024-01-30T08:41:37;4.50;99.90
15343;DHT22;7771;48.478;8.936;2024-01-30T08:44:05;4.60;99.90
15343;DHT22;7771;48.478;8.936;2024-01-30T08:46:32;4.60;99.90
15343;DHT22;7771;48.478;8.936;2024-01-30T08:48:59;4.70;99.90
15343;DHT22;7771;48.478;8.936;2024-01-30T08:51:26;4.80;99.90
15343;DHT22;7771;48.478;8.936;2024-01-30T08:53:53;4.80;99.90
15343;DHT22;7771;48.478;8.936;2024-01-30T08:56:20;5.00;99.90
15343;DHT22;7771;48.478;8.936;2024-01-30T09:01:15;5.20;99.90
15343;DHT22;7771;48.478;8.936;2024-01-30T09:03:42;5.40;99.90
15343;DHT22;7771;48.478;8.936;2024-01-30T09:06:10;5.50;99.90
15343;DHT22;7771;48.478;8.936;2024-01-30T09:08:38;5.70;99.90
15343;DHT22;7771;48.478;8.936;2024-01-30T09:11:13;5.90;99.90
15343;DHT22;7771;48.478;8.936;2024-01-30T09:13:40;6.00;99.90
15343;DHT22;7771;48.478;8.936;2024-01-30T09:21:04;6.40;99.90
15343;DHT22;7771;48.478;8.936;2024-01-30T09:23:31;6.50;99.90
15343;DHT22;7771;48.478;8.936;2024-01-30T09:25:58;6.50;99.90
15343;DHT22;7771;48.478;8.936;2024-01-30T09:28:25;6.70;99.90
15343;DHT22;7771;48.478;8.936;2024-01-30T09:30:52;6.70;99.90
15343;DHT22;7771;48.478;8.936;2024-01-30T09:33:19;6.80;99.90
15343;DHT22;7771;48.478;8.936;2024-01-30T09:35:46;6.90;99.90
15343;DHT22;7771;48.478;8.936;2024-01-30T09:38:14;6.90;99.90
15343;DHT22;7771;48.478;8.936;2024-01-30T09:40:41;7.00;99.90
15343;DHT22;7771;48.478;8.936;2024-01-30T09:43:07;7.00;99.90
15343;DHT22;7771;48.478;8.936;2024-01-30T09:45:35;7.00;99.90
15343;DHT22;7771;48.478;8.936;2024-01-30T09:48:03;7.00;99.90
15343;DHT22;7771;48.478;8.936;2024-01-30T09:52:58;7.20;99.90
15343;DHT22;7771;48.478;8.936;2024-01-30T09:55:24;7.20;99.90
15343;DHT22;7771;48.478;8.936;2024-01-30T09:57:51;7.20;99.90
15343;DHT22;7771;48.478;8.936;2024-01-30T10:00:18;7.30;99.90
15343;DHT22;7771;48.478;8.936;2024-01-30T10:02:45;7.30;99.90
15343;DHT22;7771;48.478;8.936;2024-01-30T10:05:15;7.30;99.90
15343;DHT22;7771;48.478;8.936;2024-01-30T10:15:06;7.50;99.90
15343;DHT22;7771;48.478;8.936;2024-01-30T10:20:00;7.60;99.90
15343;DHT22;7771;48.478;8.936;2024-01-30T10:22:28;7.60;99.90
15343;DHT22;7771;48.478;8.936;2024-01-30T10:24:54;7.60;99.90
15343;DHT22;7771;48.478;8.936;2024-01-30T10:27:25;7.60;99.90
15343;DHT22;7771;48.478;8.936;2024-01-30T10:29:51;7.60;99.90
15343;DHT22;7771;48.478;8.936;2024-01-30T10:32:19;7.60;99.90
15343;DHT22;7771;48.478;8.936;2024-01-30T10:34:45;7.60;99.90
15343;DHT22;7771;48.478;8.936;2024-01-30T10:39:44;7.70;99.90
15343;DHT22;7771;48.478;8.936;2024-01-30T10:42:14;7.70;99.90
15343;DHT22;7771;48.478;8.936;2024-01-30T10:47:27;7.80;99.90
15343;DHT22;7771;48.478;8.936;2024-01-30T10:52:22;7.80;99.90
15343;DHT22;7771;48.478;8.936;2024-01-30T10:54:49;7.90;99.90
15343;DHT22;7771;48.478;8.936;2024-01-30T10:57:15;8.00;99.90
15343;DHT22;7771;48.478;8.936;2024-01-30T10:59:42;8.10;99.90
15343;DHT22;7771;48.478;8.936;2024-01-30T11:02:09;8.20;99.90
15343;DHT22;7771;48.478;8.936;2024-01-30T11:07:15;8.30;99.90
15343;DHT22;7771;48.478;8.936;2024-01-30T11:09:48;8.40;99.90
15343;DHT22;7771;48.478;8.936;2024-01-30T11:12:15;8.50;99.90
15343;DHT22;7771;48.478;8.936;2024-01-30T11:14:42;8.60;99.90
15343;DHT22;7771;48.478;8.936;2024-01-30T11:17:09;8.70;99.90
15343;DHT22;7771;48.478;8.936;2024-01-30T11:19:36;8.80;99.90
15343;DHT22;7771;48.478;8.936;2024-01-30T11:22:03;8.90;99.90
15343;DHT22;7771;48.478;8.936;2024-01-30T11:26:58;9.10;99.90
15343;DHT22;7771;48.478;8.936;2024-01-30T11:29:26;9.30;99.90
15343;DHT22;7771;48.478;8.936;2024-01-30T11:31:53;9.40;99.90
15343;DHT22;7771;48.478;8.936;2024-01-30T11:34:20;9.50;99.90
15343;DHT22;7771;48.478;8.936;2024-01-30T11:36:47;9.60;99.90
15343;DHT22;7771;48.478;8.936;2024-01-30T11:41:41;9.80;99.90
15343;DHT22;7771;48.478;8.936;2024-01-30T11:44:08;9.90;99.90
15343;DHT22;7771;48.478;8.936;2024-01-30T11:46:36;10.00;99.90
15343;DHT22;7771;48.478;8.936;2024-01-30T11:49:04;10.10;99.90
15343;DHT22;7771;48.478;8.936;2024-01-30T11:51:30;10.20;99.90
15343;DHT22;7771;48.478;8.936;2024-01-30T11:53:57;10.20;99.90
15343;DHT22;7771;48.478;8.936;2024-01-30T11:56:24;10.30;99.90
15343;DHT22;7771;48.478;8.936;2024-01-30T11:58:52;10.30;99.90
15343;DHT22;7771;48.478;8.936;2024-01-30T12:01:18;10.30;99.90
15343;DHT22;7771;48.478;8.936;2024-01-30T12:03:50;10.40;99.90
15343;DHT22;7771;48.478;8.936;2024-01-30T12:09:00;10.40;99.90
15343;DHT22;7771;48.478;8.936;2024-01-30T12:11:26;10.40;99.90
15343;DHT22;7771;48.478;8.936;2024-01-30T12:13:53;10.30;99.90
15343;DHT22;7771;48.478;8.936;2024-01-30T12:16:20;10.30;99.90
15343;DHT22;7771;48.478;8.936;2024-01-30T12:18:47;10.30;99.90
15343;DHT22;7771;48.478;8.936;2024-01-30T12:23:43;10.30;99.90
15343;DHT22;7771;48.478;8.936;2024-01-30T12:26:10;10.40;99.90
15343;DHT22;7771;48.478;8.936;2024-01-30T12:28:36;10.50;99.90
15343;DHT22;7771;48.478;8.936;2024-01-30T12:31:03;10.50;99.90
15343;DHT22;7771;48.478;8.936;2024-01-30T12:33:31;10.50;99.90
15343;DHT22;7771;48.478;8.936;2024-01-30T12:36:01;10.50;99.90
15343;DHT22;7771;48.478;8.936;2024-01-30T12:38:24;10.50;99.90
15343;DHT22;7771;48.478;8.936;2024-01-30T12:40:55;10.60;99.90
15343;DHT22;7771;48.478;8.936;2024-01-30T12:43:22;10.60;99.90
15343;DHT22;7771;48.478;8.936;2024-01-30T12:45:50;10.60;99.90
15343;DHT22;7771;48.478;8.936;2024-01-30T12:50:44;10.70;99.90
15343;DHT22;7771;48.478;8.936;2024-01-30T12:53:12;10.70;99.90
15343;DHT22;7771;48.478;8.936;2024-01-30T12:55:38;10.70;99.90
15343;DHT22;7771;48.478;8.936;2024-01-30T12:58:06;10.80;99.90
15343;DHT22;7771;48.478;8.936;2024-01-30T13:00:34;10.80;99.90
15343;DHT22;7771;48.478;8.936;2024-01-30T13:03:02;10.80;99.90
15343;DHT22;7771;48.478;8.936;2024-01-30T13:05:29;10.90;99.90
15343;DHT22;7771;48.478;8.936;2024-01-30T13:07:56;10.90;99.90
15343;DHT22;7771;48.478;8.936;2024-01-30T13:10:23;10.90;99.90
15343;DHT22;7771;48.478;8.936;2024-01-30T13:12:50;10.90;99.90
15343;DHT22;7771;48.478;8.936;2024-01-30T13:15:17;11.00;99.90
15343;DHT22;7771;48.478;8.936;2024-01-30T13:17:45;11.00;99.90
15343;DHT22;7771;48.478;8.936;2024-01-30T13:20:13;11.20;99.90
15343;DHT22;7771;48.478;8.936;2024-01-30T13:22:40;11.20;99.90
15343;DHT22;7771;48.478;8.936;2024-01-30T13:27:36;11.40;99.90
15343;DHT22;7771;48.478;8.936;2024-01-30T13:30:03;11.50;99.90
15343;DHT22;7771;48.478;8.936;2024-01-30T13:32:30;11.60;99.90
15343;DHT22;7771;48.478;8.936;2024-01-30T13:34:57;11.70;99.90
15343;DHT22;7771;48.478;8.936;2024-01-30T13:37:23;11.80;99.90
15343;DHT22;7771;48.478;8.936;2024-01-30T13:39:51;11.90;99.90
15343;DHT22;7771;48.478;8.936;2024-01-30T13:42:18;12.10;99.90
15343;DHT22;7771;48.478;8.936;2024-01-30T13:47:13;12.40;99.90
15343;DHT22;7771;48.478;8.936;2024-01-30T13:49:40;12.50;99.90
15343;DHT22;7771;48.478;8.936;2024-01-30T13:54:35;12.70;99.90
15343;DHT22;7771;48.478;8.936;2024-01-30T13:57:02;12.80;99.90
15343;DHT22;7771;48.478;8.936;2024-01-30T13:59:30;12.90;99.90
15343;DHT22;7771;48.478;8.936;2024-01-30T14:01:57;13.10;99.90
15343;DHT22;7771;48.478;8.936;2024-01-30T14:04:24;13.10;99.90
15343;DHT22;7771;48.478;8.936;2024-01-30T14:06:51;13.30;99.90
15343;DHT22;7771;48.478;8.936;2024-01-30T14:09:18;13.40;99.90
15343;DHT22;7771;48.478;8.936;2024-01-30T14:11:44;13.50;99.90
15343;DHT22;7771;48.478;8.936;2024-01-30T14:14:12;13.60;99.90
15343;DHT22;7771;48.478;8.936;2024-01-30T14:16:39;13.60;99.90
15343;DHT22;7771;48.478;8.936;2024-01-30T14:19:06;13.60;99.90
15343;DHT22;7771;48.478;8.936;2024-01-30T14:21:34;13.70;99.90
15343;DHT22;7771;48.478;8.936;2024-01-30T14:24:00;13.70;99.90
15343;DHT22;7771;48.478;8.936;2024-01-30T14:26:28;13.70;99.90
15343;DHT22;7771;48.478;8.936;2024-01-30T14:28:56;13.70;99.90
15343;DHT22;7771;48.478;8.936;2024-01-30T14:31:22;13.60;99.90
15343;DHT22;7771;48.478;8.936;2024-01-30T14:33:49;13.70;99.90
15343;DHT22;7771;48.478;8.936;2024-01-30T14:38:43;13.70;99.90
15343;DHT22;7771;48.478;8.936;2024-01-30T14:41:10;13.80;99.90
15343;DHT22;7771;48.478;8.936;2024-01-30T14:43:37;13.80;99.90
15343;DHT22;7771;48.478;8.936;2024-01-30T14:46:03;13.70;99.90
15343;DHT22;7771;48.478;8.936;2024-01-30T14:48:31;13.70;99.90
15343;DHT22;7771;48.478;8.936;2024-01-30T14:50:57;13.60;99.90
15343;DHT22;7771;48.478;8.936;2024-01-30T14:53:25;13.60;99.90
15343;DHT22;7771;48.478;8.936;2024-01-30T14:58:21;13.50;99.90
15343;DHT22;7771;48.478;8.936;2024-01-30T15:00:48;13.50;99.90
15343;DHT22;7771;48.478;8.936;2024-01-30T15:03:15;13.50;99.90
15343;DHT22;7771;48.478;8.936;2024-01-30T15:05:43;13.50;99.90
15343;DHT22;7771;48.478;8.936;2024-01-30T15:10:37;13.30;99.90
15343;DHT22;7771;48.478;8.936;2024-01-30T15:13:04;13.40;99.90
15343;DHT22;7771;48.478;8.936;2024-01-30T15:15:31;13.40;99.90
15343;DHT22;7771;48.478;8.936;2024-01-30T15:17:58;13.40;99.90
15343;DHT22;7771;48.478;8.936;2024-01-30T15:20:25;13.30;99.90
15343;DHT22;7771;48.478;8.936;2024-01-30T15:22:53;13.30;99.90
15343;DHT22;7771;48.478;8.936;2024-01-30T15:25:20;13.30;99.90
15343;DHT22;7771;48.478;8.936;2024-01-30T15:27:48;13.20;99.90
15343;DHT22;7771;48.478;8.936;2024-01-30T15:30:15;13.10;99.90
15343;DHT22;7771;48.478;8.936;2024-01-30T15:32:43;13.10;99.90
15343;DHT22;7771;48.478;8.936;2024-01-30T15:35:09;13.10;99.90
15343;DHT22;7771;48.478;8.936;2024-01-30T15:37:36;13.00;99.90
15343;DHT22;7771;48.478;8.936;2024-01-30T15:40:03;13.00;99.90
15343;DHT22;7771;48.478;8.936;2024-01-30T15:42:31;13.00;99.90
15343;DHT22;7771;48.478;8.936;2024-01-30T15:44:58;13.00;99.90
15343;DHT22;7771;48.478;8.936;2024-01-30T15:47:25;12.90;99.90
15343;DHT22;7771;48.478;8.936;2024-01-30T15:52:20;12.80;99.90
15343;DHT22;7771;48.478;8.936;2024-01-30T15:54:47;12.70;99.90
15343;DHT22;7771;48.478;8.936;2024-01-30T15:57:14;12.80;99.90
15343;DHT22;7771;48.478;8.936;2024-01-30T15:59:42;12.70;99.90
15343;DHT22;7771;48.478;8.936;2024-01-30T16:04:37;12.70;99.90
15343;DHT22;7771;48.478;8.936;2024-01-30T16:07:05;12.60;99.90
15343;DHT22;7771;48.478;8.936;2024-01-30T16:09:32;12.60;99.90
15343;DHT22;7771;48.478;8.936;2024-01-30T16:11:59;12.50;99.90
15343;DHT22;7771;48.478;8.936;2024-01-30T16:14:27;12.50;99.90
15343;DHT22;7771;48.478;8.936;2024-01-30T16:19:21;12.40;99.90
15343;DHT22;7771;48.478;8.936;2024-01-30T16:21:49;12.40;99.90
15343;DHT22;7771;48.478;8.936;2024-01-30T16:24:16;12.40;99.90
15343;DHT22;7771;48.478;8.936;2024-01-30T16:26:44;12.30;99.90
15343;DHT22;7771;48.478;8.936;2024-01-30T16:29:11;12.30;99.90
15343;DHT22;7771;48.478;8.936;2024-01-30T16:31:38;12.20;99.90
15343;DHT22;7771;48.478;8.936;2024-01-30T16:34:06;12.20;99.90
15343;DHT22;7771;48.478;8.936;2024-01-30T16:39:00;12.10;99.90
15343;DHT22;7771;48.478;8.936;2024-01-30T16:41:27;12.10;99.90
15343;DHT22;7771;48.478;8.936;2024-01-30T16:46:22;12.00;99.90
15343;DHT22;7771;48.478;8.936;2024-01-30T16:48:50;12.00;99.90
15343;DHT22;7771;48.478;8.936;2024-01-30T16:51:18;11.90;99.90
15343;DHT22;7771;48.478;8.936;2024-01-30T16:53:44;11.90;99.90
15343;DHT22;7771;48.478;8.936;2024-01-30T16:56:11;11.90;99.90
15343;DHT22;7771;48.478;8.936;2024-01-30T16:58:38;11.80;99.90
15343;DHT22;7771;48.478;8.936;2024-01-30T17:01:05;11.80;99.90
15343;DHT22;7771;48.478;8.936;2024-01-30T17:03:32;11.70;99.90
15343;DHT22;7771;48.478;8.936;2024-01-30T17:06:00;11.70;99.90
15343;DHT22;7771;48.478;8.936;2024-01-30T17:08:26;11.60;99.90
15343;DHT22;7771;48.478;8.936;2024-01-30T17:10:54;11.60;99.90
15343;DHT22;7771;48.478;8.936;2024-01-30T17:13:21;11.60;99.90
15343;DHT22;7771;48.478;8.936;2024-01-30T17:15:48;11.60;99.90
15343;DHT22;7771;48.478;8.936;2024-01-30T17:18:15;11.50;99.90
15343;DHT22;7771;48.478;8.936;2024-01-30T17:20:41;11.50;99.90
15343;DHT22;7771;48.478;8.936;2024-01-30T17:23:09;11.40;99.90
15343;DHT22;7771;48.478;8.936;2024-01-30T17:25:36;11.40;99.90
15343;DHT22;7771;48.478;8.936;2024-01-30T17:28:03;11.40;99.90
15343;DHT22;7771;48.478;8.936;2024-01-30T17:30:30;11.40;99.90
15343;DHT22;7771;48.478;8.936;2024-01-30T17:32:57;11.40;99.90
15343;DHT22;7771;48.478;8.936;2024-01-30T17:35:23;11.40;99.90
15343;DHT22;7771;48.478;8.936;2024-01-30T17:37:51;11.30;99.90
15343;DHT22;7771;48.478;8.936;2024-01-30T17:40:19;11.30;99.90